Portada
METAR-TAF:

METAR-TAF

Aeroports :

Metropolis Municipal Airport

Metropolis, Illinois, Estats Units d'Amèrica

latitud: 37-11-09N, longitud: 088-45-02W, altitud: 117 m

Observació

L'informe es va fer fa 28 minuts, a les 15:15 UTC
Vent 3 kt del Sud
Temperatura -4°C
Humitat 63%
Pressió 1030 hPa
Visibilitat: 16.1 km
Cel clar

METAR: KM30 131515Z AUTO 18003KT 10SM CLR M04/M10 A3041 RMK AO2 T10451099

Hora: 09:43 (15:43 UTC)


TAF: manca

Observacions i pronòstics meteorològics de més de 4000 aeroports (METAR i TAF).

Les estacions disponibles són els punts grocs i vermells al mapa.

Posi el ratolí al punt desitjat per veure el nom de l'estació.

Feu clic per veure les observacions i els pronòstics meteorològics.

Per canviar el mapa: feu clic els botons verds amb una creu de color negre per apropar; al botó verd amb un guió per allunyar la imatge; o en les fletxes verdes per a mapes adjacents.


METAR-TAF: